sensor_id;sensor_type;location;lat;lon;timestamp;P1;durP1;ratioP1;P2;durP2;ratioP2
37789;SDS011;23628;51.434;6.988;2023-04-09T12:43:32;6.40;;;5.80;;
37789;SDS011;23628;51.434;6.988;2023-04-09T12:46:30;5.50;;;5.00;;
37789;SDS011;23628;51.434;6.988;2023-04-09T12:54:35;6.55;;;5.10;;
37789;SDS011;23628;51.434;6.988;2023-04-09T13:00:03;6.25;;;5.65;;
37789;SDS011;23628;51.434;6.988;2023-04-09T13:02:40;5.73;;;5.23;;
37789;SDS011;23628;51.434;6.988;2023-04-09T13:05:16;6.43;;;5.55;;
37789;SDS011;23628;51.434;6.988;2023-04-09T13:16:14;5.85;;;4.85;;
37789;SDS011;23628;51.434;6.988;2023-04-09T13:21:26;5.70;;;5.10;;
37789;SDS011;23628;51.434;6.988;2023-04-09T13:26:47;5.78;;;5.10;;
37789;SDS011;23628;51.434;6.988;2023-04-09T13:29:22;5.77;;;5.17;;
37789;SDS011;23628;51.434;6.988;2023-04-09T13:40:35;5.90;;;5.30;;
37789;SDS011;23628;51.434;6.988;2023-04-09T13:48:42;5.32;;;4.82;;
37789;SDS011;23628;51.434;6.988;2023-04-09T13:51:18;6.23;;;5.63;;
37789;SDS011;23628;51.434;6.988;2023-04-09T13:56:42;5.55;;;5.05;;
37789;SDS011;23628;51.434;6.988;2023-04-09T14:04:52;5.00;;;4.50;;
37789;SDS011;23628;51.434;6.988;2023-04-09T14:12:47;5.18;;;4.43;;
37789;SDS011;23628;51.434;6.988;2023-04-09T14:18:02;4.55;;;4.15;;
37789;SDS011;23628;51.434;6.988;2023-04-09T14:20:40;5.57;;;5.07;;
37789;SDS011;23628;51.434;6.988;2023-04-09T14:26:10;4.60;;;4.20;;
37789;SDS011;23628;51.434;6.988;2023-04-09T14:34:14;4.50;;;4.10;;
37789;SDS011;23628;51.434;6.988;2023-04-09T14:42:09;4.80;;;4.40;;
37789;SDS011;23628;51.434;6.988;2023-04-09T14:47:28;5.22;;;3.75;;
37789;SDS011;23628;51.434;6.988;2023-04-09T14:52:45;3.90;;;3.40;;
37789;SDS011;23628;51.434;6.988;2023-04-09T14:55:21;4.15;;;3.78;;
37789;SDS011;23628;51.434;6.988;2023-04-09T14:57:59;5.80;;;4.60;;
37789;SDS011;23628;51.434;6.988;2023-04-09T15:03:12;6.37;;;4.90;;
37789;SDS011;23628;51.434;6.988;2023-04-09T15:08:36;4.27;;;3.87;;
37789;SDS011;23628;51.434;6.988;2023-04-09T15:13:58;4.87;;;3.97;;
37789;SDS011;23628;51.434;6.988;2023-04-09T15:19:25;4.45;;;4.05;;
37789;SDS011;23628;51.434;6.988;2023-04-09T15:24:39;3.90;;;3.55;;
37789;SDS011;23628;51.434;6.988;2023-04-09T15:32:29;4.80;;;4.30;;
37789;SDS011;23628;51.434;6.988;2023-04-09T15:37:40;4.55;;;3.90;;
37789;SDS011;23628;51.434;6.988;2023-04-09T15:40:16;4.77;;;4.27;;
37789;SDS011;23628;51.434;6.988;2023-04-09T15:50:51;3.87;;;3.50;;
37789;SDS011;23628;51.434;6.988;2023-04-09T16:04:12;3.97;;;3.60;;
37789;SDS011;23628;51.434;6.988;2023-04-09T16:09:23;3.80;;;3.40;;
37789;SDS011;23628;51.434;6.988;2023-04-09T16:11:58;3.65;;;3.25;;
37789;SDS011;23628;51.434;6.988;2023-04-09T16:17:07;3.90;;;3.50;;
37789;SDS011;23628;51.434;6.988;2023-04-09T16:22:20;4.00;;;3.60;;
37789;SDS011;23628;51.434;6.988;2023-04-09T16:30:10;3.70;;;3.30;;
37789;SDS011;23628;51.434;6.988;2023-04-09T16:32:45;3.90;;;3.50;;
37789;SDS011;23628;51.434;6.988;2023-04-09T16:38:01;4.00;;;3.60;;
37789;SDS011;23628;51.434;6.988;2023-04-09T16:40:36;3.47;;;3.17;;
37789;SDS011;23628;51.434;6.988;2023-04-09T16:43:11;3.38;;;3.08;;
37789;SDS011;23628;51.434;6.988;2023-04-09T16:48:20;3.65;;;3.33;;
37789;SDS011;23628;51.434;6.988;2023-04-09T16:50:55;4.10;;;3.63;;
37789;SDS011;23628;51.434;6.988;2023-04-09T16:56:07;4.40;;;4.00;;
37789;SDS011;23628;51.434;6.988;2023-04-09T17:01:22;4.43;;;4.03;;
37789;SDS011;23628;51.434;6.988;2023-04-09T17:06:34;4.13;;;3.70;;
37789;SDS011;23628;51.434;6.988;2023-04-09T17:11:44;3.80;;;3.50;;
37789;SDS011;23628;51.434;6.988;2023-04-09T17:17:09;4.50;;;3.90;;
37789;SDS011;23628;51.434;6.988;2023-04-09T17:25:45;5.80;;;4.33;;
37789;SDS011;23628;51.434;6.988;2023-04-09T17:28:20;4.40;;;4.00;;
37789;SDS011;23628;51.434;6.988;2023-04-09T17:30:56;4.82;;;3.72;;
37789;SDS011;23628;51.434;6.988;2023-04-09T17:33:31;5.00;;;4.47;;
37789;SDS011;23628;51.434;6.988;2023-04-09T17:38:41;4.50;;;4.10;;
37789;SDS011;23628;51.434;6.988;2023-04-09T17:51:32;5.35;;;4.45;;
37789;SDS011;23628;51.434;6.988;2023-04-09T17:56:52;9.25;;;6.30;;
37789;SDS011;23628;51.434;6.988;2023-04-09T18:02:02;5.80;;;5.20;;
37789;SDS011;23628;51.434;6.988;2023-04-09T18:07:12;6.35;;;5.03;;
37789;SDS011;23628;51.434;6.988;2023-04-09T18:14:55;5.40;;;4.70;;
37789;SDS011;23628;51.434;6.988;2023-04-09T18:20:05;4.50;;;4.10;;
37789;SDS011;23628;51.434;6.988;2023-04-09T18:25:15;5.10;;;4.43;;
37789;SDS011;23628;51.434;6.988;2023-04-09T18:30:25;4.33;;;3.93;;
37789;SDS011;23628;51.434;6.988;2023-04-09T18:35:35;3.95;;;3.55;;
37789;SDS011;23628;51.434;6.988;2023-04-09T18:38:10;4.72;;;4.20;;
37789;SDS011;23628;51.434;6.988;2023-04-09T18:48:29;5.20;;;3.93;;
37789;SDS011;23628;51.434;6.988;2023-04-09T18:53:38;6.50;;;4.40;;
37789;SDS011;23628;51.434;6.988;2023-04-09T18:56:14;4.05;;;3.60;;
37789;SDS011;23628;51.434;6.988;2023-04-09T19:01:25;5.15;;;4.65;;
37789;SDS011;23628;51.434;6.988;2023-04-09T19:06:36;6.00;;;4.95;;
37789;SDS011;23628;51.434;6.988;2023-04-09T19:11:46;5.87;;;5.23;;
37789;SDS011;23628;51.434;6.988;2023-04-09T19:14:21;6.60;;;5.00;;
37789;SDS011;23628;51.434;6.988;2023-04-09T19:19:32;6.85;;;5.45;;
37789;SDS011;23628;51.434;6.988;2023-04-09T19:24:42;6.43;;;5.43;;
37789;SDS011;23628;51.434;6.988;2023-04-09T19:29:52;5.47;;;4.95;;
37789;SDS011;23628;51.434;6.988;2023-04-09T19:35:03;5.20;;;4.65;;
37789;SDS011;23628;51.434;6.988;2023-04-09T19:40:14;5.00;;;4.40;;
37789;SDS011;23628;51.434;6.988;2023-04-09T19:42:51;5.50;;;4.50;;
37789;SDS011;23628;51.434;6.988;2023-04-09T19:48:00;5.90;;;4.75;;
37789;SDS011;23628;51.434;6.988;2023-04-09T19:53:14;6.60;;;5.20;;
37789;SDS011;23628;51.434;6.988;2023-04-09T19:58:23;6.90;;;4.68;;
37789;SDS011;23628;51.434;6.988;2023-04-09T20:03:33;4.90;;;4.40;;
37789;SDS011;23628;51.434;6.988;2023-04-09T20:08:43;5.65;;;4.80;;
37789;SDS011;23628;51.434;6.988;2023-04-09T20:13:53;6.38;;;4.95;;
37789;SDS011;23628;51.434;6.988;2023-04-09T20:19:04;5.40;;;4.50;;
37789;SDS011;23628;51.434;6.988;2023-04-09T20:24:17;5.32;;;4.82;;
37789;SDS011;23628;51.434;6.988;2023-04-09T20:29:27;7.20;;;5.70;;
37789;SDS011;23628;51.434;6.988;2023-04-09T20:42:18;6.65;;;5.05;;
37789;SDS011;23628;51.434;6.988;2023-04-09T20:44:53;7.53;;;5.15;;
37789;SDS011;23628;51.434;6.988;2023-04-09T20:50:02;6.60;;;5.25;;
37789;SDS011;23628;51.434;6.988;2023-04-09T20:52:38;7.25;;;5.43;;
37789;SDS011;23628;51.434;6.988;2023-04-09T20:57:47;7.15;;;5.80;;
37789;SDS011;23628;51.434;6.988;2023-04-09T21:02:56;6.32;;;5.35;;
37789;SDS011;23628;51.434;6.988;2023-04-09T21:08:06;7.20;;;6.23;;
37789;SDS011;23628;51.434;6.988;2023-04-09T21:10:41;10.10;;;6.40;;
37789;SDS011;23628;51.434;6.988;2023-04-09T21:15:50;6.95;;;6.00;;
37789;SDS011;23628;51.434;6.988;2023-04-09T21:20:59;7.00;;;6.30;;
37789;SDS011;23628;51.434;6.988;2023-04-09T21:26:09;7.35;;;6.25;;
37789;SDS011;23628;51.434;6.988;2023-04-09T21:31:21;6.87;;;5.87;;
37789;SDS011;23628;51.434;6.988;2023-04-09T21:36:31;8.37;;;5.47;;
37789;SDS011;23628;51.434;6.988;2023-04-09T21:41:44;6.28;;;5.35;;
37789;SDS011;23628;51.434;6.988;2023-04-09T21:44:19;5.70;;;4.60;;
37789;SDS011;23628;51.434;6.988;2023-04-09T21:49:29;8.20;;;5.30;;
37789;SDS011;23628;51.434;6.988;2023-04-09T21:54:39;6.88;;;5.00;;
37789;SDS011;23628;51.434;6.988;2023-04-09T21:57:16;8.90;;;5.70;;
37789;SDS011;23628;51.434;6.988;2023-04-09T21:59:52;7.80;;;5.50;;
37789;SDS011;23628;51.434;6.988;2023-04-09T22:05:01;7.00;;;5.90;;
37789;SDS011;23628;51.434;6.988;2023-04-09T22:10:14;6.80;;;5.30;;
37789;SDS011;23628;51.434;6.988;2023-04-09T22:12:49;9.23;;;5.47;;
37789;SDS011;23628;51.434;6.988;2023-04-09T22:17:59;6.53;;;5.43;;
37789;SDS011;23628;51.434;6.988;2023-04-09T22:23:09;6.70;;;5.25;;
37789;SDS011;23628;51.434;6.988;2023-04-09T22:28:19;6.45;;;5.40;;
37789;SDS011;23628;51.434;6.988;2023-04-09T22:33:28;6.60;;;4.70;;
37789;SDS011;23628;51.434;6.988;2023-04-09T22:41:12;5.25;;;4.75;;
37789;SDS011;23628;51.434;6.988;2023-04-09T22:43:48;6.95;;;5.10;;
37789;SDS011;23628;51.434;6.988;2023-04-09T22:48:57;7.30;;;5.35;;
